Logo AVAMET
Benvolgut visitant, si us plau, ingressa Recuperar contrasenya

Inforatge Massamagrell

Dades diàries. Acumulats / Últims 30 dies disponibles

Data Temperatura (°C) Humitat rel. (%) Pressió rel. (hPa) Vent (km/h) Precipitació
Mínima Mitjana Màxima Amplitud
tèrmica
Mínima Mitjana Màxima Mínima Mitjana Màxima Predom. Mitjana Ràfega
màxima
Total
(mm)
Índex-n
Mínima Mitjana Màxima Mínima Mitjana Màxima n
0 a 1
P0 max
mm 5'
Dades mensuals acumulades fins l'últim dia disponible
11/2019 4,7 10,8 20,7 15,1 15,9 19,7 28,8 24,1 24 55 87 1.000 1.011 1.022   10,3 57,9 0,4
Dades anuals acumulades fins l'últim dia disponible
2019 0,5 13,5 26,0 18,2 9,6 22,9 42,2 41,7 14 67 98 993 1.018 1.037   7,9 77,8 202,8
Últims 30 dies disponibles
21-11-2019 7,3     12,2     16,6 9,3 55 72 84 1.009 1.010 1.011 WSW 4,8 22,5 0,0
20-11-2019 6,8     11,4     16,4 9,6 45 65 78 1.010 1.013 1.016 W 5,6 20,9 0,0
19-11-2019 4,7     10,4     17,3 12,6 35 58 75 1.015 1.017 1.019 WSW 5,1 24,1 0,0
18-11-2019 8,2     12,2     16,2 8,0 43 60 78 1.008 1.012 1.017 W 5,5 24,1 0,0
17-11-2019 5,3     11,3     16,4 11,1 41 58 70 1.009 1.013 1.015 WSW 11,9 45,1 0,0
16-11-2019 5,7     10,3     15,9 10,2 43 59 72 1.008 1.012 1.015 W 5,8 24,1 0,0
15-11-2019 5,9     11,1     16,1 10,2 38 57 76 1.001 1.004 1.008 W 9,5 37,0 0,0
14-11-2019 8,9     13,3     17,1 8,2 46 63 87 1.000 1.003 1.010 WSW 11,9 49,9 0,0
13-11-2019 11,2     15,1     19,4 8,2 46 69 84 1.005 1.009 1.012 SW 6,9 33,8 0,4
12-11-2019 12,3     15,4     19,6 7,3 34 42 52 1.010 1.012 1.014 NW 11,7 46,7 0,0
11-11-2019 8,6     14,2     19,1 10,5 35 48 61 1.011 1.014 1.015 NW 7,6 37,0 0,0
10-11-2019 10,8     14,0     16,9 6,1 35 46 69 1.011 1.013 1.015 WNW 14,0 51,5 0,0
09-11-2019 12,2     15,3     20,1 7,9 32 44 59 1.014 1.017 1.020 WSW 13,4 38,6 0,0
08-11-2019 9,9     13,7     18,1 8,2 32 46 57 1.010 1.013 1.017 W 12,4 48,3 0,0
07-11-2019 12,1     16,4     22,2 10,1 24 51 69 1.008 1.010 1.014 WSW 11,6 41,8 0,0
06-11-2019 10,1     15,8     22,2 12,1 31 51 74 1.012 1.013 1.015 W 6,1 38,6 0,0
05-11-2019 13,3     17,8     20,6 7,3 36 49 63 1.006 1.009 1.013 WSW 15,6 53,1 0,0
04-11-2019 17,7     20,8     24,1 6,4 41 52 67 1.006 1.009 1.011 WSW 18,3 57,9 0,0
03-11-2019 19,4     21,4     24,6 5,2 27 48 67 1.001 1.005 1.011 WSW 18,2 53,1 0,0
02-11-2019 20,7     23,1     26,9 6,2 43 59 71 1.005 1.009 1.014 WSW 12,6 54,7 0,0
01-11-2019 16,0     22,5     28,8 12,8 44 63 81 1.014 1.017 1.022 WSW 7,6 30,6 0,0
31-10-2019 16,8     21,4     27,8 11,0 41 68 84 1.020 1.021 1.022 SO 5,0 24,1 0,0
30-10-2019 14,0     18,8     24,8 10,8 55 78 92 1.020 1.021 1.023 W 4,3 17,7 0,0
29-10-2019 13,1     17,6     22,3 9,2 68 86 92 1.016 1.018 1.021 W 4,0 17,7 0,0
28-10-2019 13,4     16,9     21,2 7,8 72 85 93 1.017 1.019 1.022 W 3,2 12,9 0,0
27-10-2019 13,3     17,3     22,3 9,0 66 83 92 1.021 1.023 1.024 W 4,5 24,1 0,0
26-10-2019 11,3     16,8     21,8 10,5 64 79 88 1.021 1.022 1.024 W 4,8 22,5 0,0
25-10-2019 12,1     17,6     23,6 11,5 45 67 85 1.021 1.023 1.024 WSW 5,3 20,9 0,0
24-10-2019 9,9     16,2     23,3 13,4 41 62 84 1.012 1.016 1.023 W 7,2 24,1 0,0
23-10-2019 10,6     14,7     19,3 8,7 47 67 87 1.006 1.008 1.012 WSW 10,5 33,8 0,0
Últims 13 mesos disponibles
10/2019 9,9 15,1 20,5 19,7 17,4 24,7 29,4 19,5 48 72 86 1.008 1.018 1.023 W 6,0 38,9 23,6
09/2019 15,5 19,6 23,2 23,4 21,4 27,1 35,3 19,8 47 74 84 1.011 1.019 1.026 S 8,1 68,5 76,8
08/2019 17,4 21,7 26,0 25,8 26,5 29,8 42,2 24,8 44 72 82 1.013 1.018 1.022 S 8,1 61,1 5,0
07/2019 19,8 21,7 24,1 26,1 27,6 30,0 37,6 17,8 53 69 81 1.006 1.015 1.023 SSE 7,8 50,0 14,0
06/2019 11,4 17,3 21,6 22,0 20,4 25,9 34,1 22,7 48 68 82 1.010 1.017 1.023 SE 8,5 59,6 0,0
05/2019 8,5 13,8 19,1 18,2 17,8 22,3 33,1 24,6 47 69 85 1.006 1.016 1.026 SSE 7,9 55,6 26,6
04/2019 7,4 10,9 14,3 15,1 15,5 19,7 30,1 22,7 46 67 95 1.000 1.014 1.026 SSO 10,3 70,9 43,2
03/2019 4,8 8,2 14,2 13,7 9,6 19,0 29,1 24,3 44 63 83 1.012 1.024 1.031 SSO 6,9 61,1 12,8
02/2019 1,4 5,6 10,8 11,1 13,2 17,5 25,2 23,8 33 67 80 995 1.026 1.035 SSO 6,9 77,8 0,0
01/2019 0,5 4,9 11,8 10,3 11,7 16,6 20,7 20,2 44 61 82 1.002 1.020 1.031 OSO 6,8 66,7 0,4
12/2018 3,9 7,6 12,9 12,2 14,3 18,3 24,2 20,3 51 72 86 1.009 1.026 1.031 OSO 5,7 61,1 8,4
11/2018 5,1 10,6 16,3 14,1 14,3 18,4 23,6 18,5 57 74 90 1.003 1.016 1.025 OSO 7,2 64,8 149,8
10/2018 7,4 13,9 18,2 17,8 14,2 21,7 27,2 19,8 42 74 90 1.001 1.015 1.027 SSE 6,0 66,7 227,0
Tots els anys disponibles
Temperatura (°C)
Humitat relativa (%)
Velocitat del vent i ràfega màxima (km/h)
Direcció del vent (°)
Pressió (hPa)
Precipitació (mm)
Nota sobre les dades: s'avisa a l'usuari de la provisionalitat i no oficialitat d'aquestes dades
Logo AVAMET blanc
Web allotjada a Sollutia
Llicència de Creative CommonsLa web d'AVAMET i els seus continguts estan subjectes a una llicència de
Reconeixement - No Comercial - Compartir igual
Últimes estacions: Faura (Inforatge), Benifairó de les Valls (Inforatge), Xàbia - Les Valls (Soci), Xàbia - Alt de la Granadella (Soci), Villena - Sierra de Salinas (Soci), Sueca - Centre (Inforatge) - - -